Goodland, KS (67735)

12:54 AM MST on February 10, 2016 (GMT -0700)
City of Gld Backyard Station | | Change Station
CLOSE
Current Station
Personal Weather Station
Location: Goodland, KS
Elevation: 3711 ft
Nearby Weather Stations

Elev 3711 ft 39.34 °N, 101.71 °W | Updated 57 seconds ago

Clear
Clear
36.9 °F
Feels Like 32 °F
N
5.8
Wind Variable Wind from WSW

Today
High -- | Low -- °F
--% Chance of Precip.
Yesterday
High -- | Low -- °F
Precip. -- in
Pressure 30.18 in
Visibility 10.0 miles
Clouds Clear
Windchill 32 °F
Dew Point 24 °F
Humidity 60%
Rainfall 0.00 in
Snow Depth Not available.
6:45 AM 5:17 PM
Waxing Crescent, 4% visible
METAR KGLD 100653Z AUTO 28015KT 10SM CLR 03/M03 A3016 RMK AO2 SLP218 T00281033 400891067
Pressure 30.18 in
Visibility 10.0 miles
Clouds Clear
Windchill 32 °F
Dew Point 24 °F
Humidity 60%
Rainfall 0.00 in
Snow Depth Not available.
6:45 AM 5:17 PM
Waxing Crescent, 4% visible
METAR KGLD 100653Z AUTO 28015KT 10SM CLR 03/M03 A3016 RMK AO2 SLP218 T00281033 400891067

10-Day Weather Forecast

Almanac

Astronomy

Feb. 10, 2016 Rise Set
Actual Time
Civil Twilight
Nautical Twilight
Astronomical Twilight
Moon
Length of Visible Light
Length of Day
Tomorrow will be .
, % of the Moon is Illuminated

Today's Extremes

State Highs State Lows

Community

WunderPhotos

Upload Photos

1,891,826 photos uploaded!

WunderBlog® & News

Nearby

Air Quality

  Air Quality AQ Index Pollutant
Not available.

Snow Depth

Station Depth Elevation

Earthquake Activity

City Distance Mag. Time & Date
Minimum magnitude displayed is 2.5.

Coastal Water Temperatures

Place Temperature

Stations

Nearby Weather Stations

Station Location Temp. Windchill Dew Point Humidity Wind Precip. Elev Updated Type
                   

Watches & Warnings

There are currently no watches in effect.